GXA242 MKJP-MYNN
Flight info
| Callsign | GXA242 |
|---|---|
| Flight time | 1h 5m |
| Altitude | 33000 |
| Route | DCT ENAMO DCT HODGY DCT ZQA DCT |
| Aircraft | A320/M-SDE3FGHIRWY/LB1 |
Departure
| Time | 2026-05-04 19:34 |
|---|---|
| Airport | Norman Manley International Airport (MKJP) |
Arrival
| Time | 2026-05-04 20:40 |
|---|---|
| Airport | Lynden Pindling International Airport (MYNN) |
| Time | Latitude | Longitude | Altitude | Speed | Heading |
|---|---|---|---|---|---|
| 2026-05-04 19:33 | 17.94009 | -76.79899 | 12 ft | 17 kts | 120° |
| 2026-05-04 19:33 | 17.93950 | -76.79749 | 14 ft | 41 kts | 112° |
| 2026-05-04 19:34 | 17.93751 | -76.79234 | 14 ft | 108 kts | 112° |
| 2026-05-04 19:34 | 17.93400 | -76.78323 | 43 ft | 156 kts | 113° |
| 2026-05-04 19:34 | 17.93005 | -76.77297 | 782 ft | 148 kts | 114° |
| 2026-05-04 19:34 | 17.92743 | -76.76257 | 1439 ft | 150 kts | 89° |
| 2026-05-04 19:35 | 17.93106 | -76.75234 | 1923 ft | 159 kts | 52° |
| 2026-05-04 19:35 | 17.94179 | -76.74690 | 2167 ft | 193 kts | 8° |
| 2026-05-04 19:35 | 17.95617 | -76.74768 | 2394 ft | 221 kts | 359° |
| 2026-05-04 19:35 | 17.97221 | -76.75012 | 2663 ft | 248 kts | 344° |
| 2026-05-04 19:36 | 17.98856 | -76.75821 | 3054 ft | 270 kts | 332° |
| 2026-05-04 19:36 | 18.00520 | -76.76808 | 3565 ft | 278 kts | 330° |
| 2026-05-04 19:36 | 18.02190 | -76.77840 | 4386 ft | 281 kts | 332° |
| 2026-05-04 19:36 | 18.03875 | -76.78881 | 5253 ft | 281 kts | 338° |
| 2026-05-04 19:37 | 18.05748 | -76.79394 | 6061 ft | 279 kts | 358° |
| 2026-05-04 19:37 | 18.07688 | -76.79590 | 6869 ft | 281 kts | 357° |
| 2026-05-04 19:37 | 18.09645 | -76.79786 | 7655 ft | 284 kts | 356° |
| 2026-05-04 19:37 | 18.11625 | -76.79983 | 8384 ft | 288 kts | 355° |
| 2026-05-04 19:38 | 18.13627 | -76.80182 | 9121 ft | 291 kts | 355° |
| 2026-05-04 19:38 | 18.15655 | -76.80385 | 9853 ft | 295 kts | 355° |
| 2026-05-04 19:38 | 18.17698 | -76.80591 | 10301 ft | 308 kts | 355° |
| 2026-05-04 19:38 | 18.19939 | -76.80815 | 10462 ft | 331 kts | 355° |
| 2026-05-04 19:39 | 18.22279 | -76.81049 | 10577 ft | 353 kts | 355° |
| 2026-05-04 19:39 | 18.24782 | -76.81295 | 10866 ft | 367 kts | 355° |
| 2026-05-04 19:39 | 18.27348 | -76.81547 | 11389 ft | 374 kts | 354° |
| 2026-05-04 19:39 | 18.29954 | -76.81805 | 11952 ft | 378 kts | 354° |
| 2026-05-04 19:40 | 18.32591 | -76.82067 | 12478 ft | 384 kts | 354° |
| 2026-05-04 19:40 | 18.35265 | -76.82333 | 13045 ft | 387 kts | 354° |
| 2026-05-04 19:40 | 18.37955 | -76.82601 | 13627 ft | 390 kts | 354° |
| 2026-05-04 19:40 | 18.40673 | -76.82872 | 14127 ft | 394 kts | 354° |
| 2026-05-04 19:41 | 18.43409 | -76.83147 | 14638 ft | 396 kts | 353° |
| 2026-05-04 19:41 | 18.46166 | -76.83424 | 15122 ft | 400 kts | 353° |
| 2026-05-04 19:41 | 18.48945 | -76.83702 | 15643 ft | 402 kts | 353° |
| 2026-05-04 19:41 | 18.51736 | -76.83979 | 16144 ft | 404 kts | 353° |
| 2026-05-04 19:42 | 18.54547 | -76.84256 | 16661 ft | 407 kts | 353° |
| 2026-05-04 19:42 | 18.57375 | -76.84537 | 17153 ft | 410 kts | 353° |
| 2026-05-04 19:42 | 18.60221 | -76.84819 | 17661 ft | 412 kts | 353° |
| 2026-05-04 19:42 | 18.63087 | -76.85105 | 18162 ft | 415 kts | 352° |
| 2026-05-04 19:43 | 18.65973 | -76.85392 | 18606 ft | 418 kts | 353° |
| 2026-05-04 19:43 | 18.68871 | -76.85680 | 19059 ft | 419 kts | 352° |
| 2026-05-04 19:43 | 18.71781 | -76.85972 | 19500 ft | 421 kts | 353° |
| 2026-05-04 19:43 | 18.74702 | -76.86271 | 19917 ft | 423 kts | 352° |
| 2026-05-04 19:44 | 18.77642 | -76.86569 | 20335 ft | 425 kts | 353° |
| 2026-05-04 19:44 | 18.80590 | -76.86862 | 20770 ft | 426 kts | 352° |
| 2026-05-04 19:44 | 18.83543 | -76.87158 | 21178 ft | 427 kts | 353° |
| 2026-05-04 19:44 | 18.86511 | -76.87459 | 21567 ft | 429 kts | 352° |
| 2026-05-04 19:45 | 18.89492 | -76.87762 | 21941 ft | 431 kts | 353° |
| 2026-05-04 19:45 | 18.92485 | -76.88063 | 22310 ft | 433 kts | 352° |
| 2026-05-04 19:45 | 18.95491 | -76.88360 | 22680 ft | 435 kts | 353° |
| 2026-05-04 19:45 | 18.98511 | -76.88655 | 23022 ft | 437 kts | 353° |
| 2026-05-04 19:46 | 19.01539 | -76.88955 | 23371 ft | 438 kts | 353° |
| 2026-05-04 19:46 | 19.04584 | -76.89262 | 23666 ft | 441 kts | 353° |
| 2026-05-04 19:46 | 19.07644 | -76.89570 | 23933 ft | 443 kts | 353° |
| 2026-05-04 19:46 | 19.10715 | -76.89878 | 24181 ft | 445 kts | 353° |
| 2026-05-04 19:47 | 19.13804 | -76.90187 | 24430 ft | 447 kts | 353° |
| 2026-05-04 19:47 | 19.16909 | -76.90497 | 24672 ft | 449 kts | 353° |
| 2026-05-04 19:47 | 19.20026 | -76.90811 | 24915 ft | 451 kts | 353° |
| 2026-05-04 19:47 | 19.23157 | -76.91130 | 25151 ft | 453 kts | 352° |
| 2026-05-04 19:48 | 19.26259 | -76.91443 | 25386 ft | 455 kts | 352° |
| 2026-05-04 19:48 | 19.29415 | -76.91759 | 25620 ft | 457 kts | 352° |
| 2026-05-04 19:48 | 19.32589 | -76.92078 | 25859 ft | 459 kts | 352° |
| 2026-05-04 19:48 | 19.35772 | -76.92399 | 26095 ft | 461 kts | 352° |
| 2026-05-04 19:49 | 19.38969 | -76.92724 | 26326 ft | 463 kts | 352° |
| 2026-05-04 19:49 | 19.42179 | -76.93049 | 26547 ft | 464 kts | 352° |
| 2026-05-04 19:49 | 19.45407 | -76.93373 | 26763 ft | 466 kts | 352° |
| 2026-05-04 19:49 | 19.48641 | -76.93700 | 26982 ft | 468 kts | 352° |
| 2026-05-04 19:50 | 19.51892 | -76.94027 | 27181 ft | 470 kts | 352° |
| 2026-05-04 19:50 | 19.55154 | -76.94357 | 27380 ft | 472 kts | 352° |
| 2026-05-04 19:50 | 19.58427 | -76.94690 | 27576 ft | 474 kts | 352° |
| 2026-05-04 19:50 | 19.61712 | -76.95021 | 27769 ft | 475 kts | 352° |
| 2026-05-04 19:51 | 19.65009 | -76.95353 | 27954 ft | 477 kts | 351° |
| 2026-05-04 19:51 | 19.68321 | -76.95689 | 28137 ft | 479 kts | 351° |
| 2026-05-04 19:51 | 19.71641 | -76.96023 | 28307 ft | 480 kts | 351° |
| 2026-05-04 19:51 | 19.74967 | -76.96358 | 28567 ft | 480 kts | 351° |
| 2026-05-04 19:52 | 19.78296 | -76.96694 | 28825 ft | 480 kts | 351° |
| 2026-05-04 19:52 | 19.81619 | -76.97027 | 29079 ft | 480 kts | 351° |
| 2026-05-04 19:52 | 19.84943 | -76.97363 | 29324 ft | 480 kts | 351° |
| 2026-05-04 19:52 | 19.88269 | -76.97704 | 29579 ft | 480 kts | 351° |
| 2026-05-04 19:53 | 19.91593 | -76.98044 | 29844 ft | 480 kts | 351° |
| 2026-05-04 19:53 | 19.94918 | -76.98383 | 30087 ft | 480 kts | 351° |
| 2026-05-04 19:53 | 19.98242 | -76.98718 | 30295 ft | 480 kts | 351° |
| 2026-05-04 19:53 | 20.01559 | -76.99052 | 30572 ft | 478 kts | 350° |
| 2026-05-04 19:54 | 20.04865 | -76.99386 | 30838 ft | 476 kts | 350° |
| 2026-05-04 19:54 | 20.08160 | -76.99722 | 31094 ft | 475 kts | 349° |
| 2026-05-04 19:54 | 20.11450 | -77.00057 | 31346 ft | 475 kts | 349° |
| 2026-05-04 19:54 | 20.14734 | -77.00389 | 31596 ft | 474 kts | 349° |
| 2026-05-04 19:55 | 20.18014 | -77.00721 | 31841 ft | 473 kts | 349° |
| 2026-05-04 19:55 | 20.21292 | -77.01055 | 32089 ft | 473 kts | 349° |
| 2026-05-04 19:55 | 20.24563 | -77.01388 | 32334 ft | 472 kts | 349° |
| 2026-05-04 19:55 | 20.27831 | -77.01722 | 32577 ft | 472 kts | 349° |
| 2026-05-04 19:56 | 20.31096 | -77.02055 | 32830 ft | 471 kts | 349° |
| 2026-05-04 19:56 | 20.34360 | -77.02391 | 32984 ft | 472 kts | 348° |
| 2026-05-04 19:56 | 20.37632 | -77.02728 | 33009 ft | 473 kts | 348° |
| 2026-05-04 19:57 | 20.44186 | -77.03396 | 33006 ft | 473 kts | 348° |
| 2026-05-04 19:57 | 20.50744 | -77.04070 | 33003 ft | 473 kts | 348° |
| 2026-05-04 19:58 | 20.57294 | -77.04742 | 33007 ft | 473 kts | 348° |
| 2026-05-04 19:58 | 20.63849 | -77.05405 | 33010 ft | 473 kts | 348° |
| 2026-05-04 19:59 | 20.70397 | -77.06074 | 33026 ft | 473 kts | 348° |
| 2026-05-04 19:59 | 20.76895 | -77.06746 | 33024 ft | 472 kts | 348° |
| 2026-05-04 20:00 | 20.83434 | -77.07418 | 33027 ft | 472 kts | 348° |
| 2026-05-04 20:00 | 20.89972 | -77.08085 | 33023 ft | 472 kts | 348° |
| 2026-05-04 20:01 | 20.96499 | -77.08756 | 33020 ft | 471 kts | 348° |
| 2026-05-04 20:01 | 21.03025 | -77.09426 | 33015 ft | 471 kts | 348° |
| 2026-05-04 20:02 | 21.09547 | -77.10092 | 33007 ft | 470 kts | 348° |
| 2026-05-04 20:02 | 21.16063 | -77.10766 | 33005 ft | 471 kts | 348° |
| 2026-05-04 20:03 | 21.22583 | -77.11445 | 33005 ft | 471 kts | 348° |
| 2026-05-04 20:03 | 21.28005 | -77.12007 | 33008 ft | 471 kts | 348° |
| 2026-05-04 20:04 | 21.34531 | -77.12683 | 33021 ft | 471 kts | 348° |
| 2026-05-04 20:04 | 21.41057 | -77.13357 | 33019 ft | 471 kts | 348° |
| 2026-05-04 20:05 | 21.47583 | -77.14030 | 33013 ft | 471 kts | 348° |
| 2026-05-04 20:05 | 21.54110 | -77.14704 | 33013 ft | 471 kts | 348° |
| 2026-05-04 20:06 | 21.60632 | -77.15389 | 33007 ft | 471 kts | 348° |
| 2026-05-04 20:06 | 21.67154 | -77.16063 | 33024 ft | 471 kts | 348° |
| 2026-05-04 20:07 | 21.73675 | -77.16734 | 33018 ft | 471 kts | 348° |
| 2026-05-04 20:07 | 21.80192 | -77.17405 | 33009 ft | 470 kts | 348° |
| 2026-05-04 20:08 | 21.86663 | -77.18077 | 33007 ft | 470 kts | 348° |
| 2026-05-04 20:08 | 21.93169 | -77.18760 | 32993 ft | 470 kts | 348° |
| 2026-05-04 20:09 | 21.99677 | -77.19446 | 33007 ft | 470 kts | 347° |
| 2026-05-04 20:09 | 22.06194 | -77.20125 | 32990 ft | 471 kts | 347° |
| 2026-05-04 20:10 | 22.12715 | -77.20806 | 32995 ft | 471 kts | 347° |
| 2026-05-04 20:10 | 22.19237 | -77.21491 | 32996 ft | 471 kts | 347° |
| 2026-05-04 20:11 | 22.25768 | -77.22176 | 33003 ft | 472 kts | 347° |
| 2026-05-04 20:11 | 22.32304 | -77.22857 | 33024 ft | 472 kts | 347° |
| 2026-05-04 20:12 | 22.38845 | -77.23543 | 33022 ft | 472 kts | 347° |
| 2026-05-04 20:12 | 22.45385 | -77.24227 | 33016 ft | 472 kts | 347° |
| 2026-05-04 20:13 | 22.51922 | -77.24908 | 33011 ft | 472 kts | 347° |
| 2026-05-04 20:13 | 22.58450 | -77.25600 | 33008 ft | 472 kts | 347° |
| 2026-05-04 20:14 | 22.64982 | -77.26293 | 33030 ft | 471 kts | 347° |
| 2026-05-04 20:14 | 22.71502 | -77.26983 | 33024 ft | 471 kts | 347° |
| 2026-05-04 20:15 | 22.78018 | -77.27661 | 33020 ft | 470 kts | 347° |
| 2026-05-04 20:15 | 22.84528 | -77.28343 | 33015 ft | 470 kts | 347° |
| 2026-05-04 20:16 | 22.91025 | -77.29035 | 33014 ft | 469 kts | 347° |
| 2026-05-04 20:16 | 22.97520 | -77.29722 | 33026 ft | 468 kts | 347° |
| 2026-05-04 20:17 | 23.04006 | -77.30405 | 33016 ft | 468 kts | 347° |
| 2026-05-04 20:17 | 23.10480 | -77.31092 | 33010 ft | 467 kts | 347° |
| 2026-05-04 20:18 | 23.16949 | -77.31779 | 33006 ft | 467 kts | 347° |
| 2026-05-04 20:18 | 23.23415 | -77.32470 | 33024 ft | 467 kts | 347° |
| 2026-05-04 20:19 | 23.29875 | -77.33155 | 33014 ft | 466 kts | 347° |
| 2026-05-04 20:19 | 23.36285 | -77.33840 | 33006 ft | 466 kts | 347° |
| 2026-05-04 20:20 | 23.42738 | -77.34526 | 32996 ft | 466 kts | 347° |
| 2026-05-04 20:20 | 23.49184 | -77.35211 | 32995 ft | 466 kts | 347° |
| 2026-05-04 20:21 | 23.55631 | -77.35897 | 33017 ft | 466 kts | 347° |
| 2026-05-04 20:21 | 23.65376 | -77.36594 | 33002 ft | 469 kts | 351° |
| 2026-05-04 20:22 | 23.71904 | -77.36893 | 32996 ft | 470 kts | 351° |
| 2026-05-04 20:22 | 23.78428 | -77.37242 | 32996 ft | 469 kts | 350° |
| 2026-05-04 20:23 | 23.84946 | -77.37628 | 32995 ft | 469 kts | 350° |
| 2026-05-04 20:23 | 23.91471 | -77.38023 | 33006 ft | 470 kts | 350° |
| 2026-05-04 20:24 | 23.97994 | -77.38413 | 33009 ft | 469 kts | 350° |
| 2026-05-04 20:24 | 24.04507 | -77.38799 | 33009 ft | 469 kts | 350° |
| 2026-05-04 20:25 | 24.11019 | -77.39178 | 33007 ft | 468 kts | 350° |
| 2026-05-04 20:25 | 24.17524 | -77.39562 | 33005 ft | 468 kts | 350° |
| 2026-05-04 20:26 | 24.24027 | -77.39949 | 32993 ft | 468 kts | 350° |
| 2026-05-04 20:26 | 24.30530 | -77.40339 | 32990 ft | 468 kts | 350° |
| 2026-05-04 20:27 | 24.37028 | -77.40726 | 32989 ft | 468 kts | 350° |
| 2026-05-04 20:27 | 24.43529 | -77.41107 | 32988 ft | 468 kts | 350° |
| 2026-05-04 20:28 | 24.50030 | -77.41489 | 33017 ft | 468 kts | 350° |
| 2026-05-04 20:28 | 24.56541 | -77.41876 | 32996 ft | 469 kts | 350° |
| 2026-05-04 20:29 | 24.63057 | -77.42268 | 32988 ft | 469 kts | 349° |
| 2026-05-04 20:29 | 24.69574 | -77.42671 | 32986 ft | 469 kts | 350° |
| 2026-05-04 20:30 | 24.76099 | -77.43063 | 32997 ft | 470 kts | 350° |
| 2026-05-04 20:30 | 24.82581 | -77.43451 | 33023 ft | 470 kts | 349° |
| 2026-05-04 20:31 | 24.89140 | -77.43772 | 31127 ft | 487 kts | 353° |
| 2026-05-04 20:31 | 24.92348 | -77.44501 | 29210 ft | 456 kts | 325° |
| 2026-05-04 20:31 | 24.94686 | -77.46608 | 27509 ft | 423 kts | 301° |
| 2026-05-04 20:32 | 24.95797 | -77.49459 | 25639 ft | 401 kts | 272° |
| 2026-05-04 20:32 | 24.95370 | -77.52449 | 22486 ft | 409 kts | 243° |
| 2026-05-04 20:32 | 24.93791 | -77.55189 | 19451 ft | 429 kts | 249° |
| 2026-05-04 20:32 | 24.93260 | -77.58331 | 17380 ft | 415 kts | 272° |
| 2026-05-04 20:33 | 24.94042 | -77.61349 | 15313 ft | 414 kts | 302° |
| 2026-05-04 20:33 | 24.96080 | -77.63337 | 14875 ft | 381 kts | 331° |
| 2026-05-04 20:33 | 24.98669 | -77.63733 | 13192 ft | 390 kts | 8° |
| 2026-05-04 20:33 | 25.01133 | -77.62388 | 11257 ft | 407 kts | 44° |
| 2026-05-04 20:34 | 25.02327 | -77.59746 | 10803 ft | 372 kts | 85° |
| 2026-05-04 20:34 | 25.01887 | -77.57096 | 10106 ft | 344 kts | 124° |
| 2026-05-04 20:34 | 25.00155 | -77.55574 | 9334 ft | 310 kts | 172° |
| 2026-05-04 20:34 | 24.98207 | -77.55920 | 8202 ft | 282 kts | 224° |
| 2026-05-04 20:35 | 24.97403 | -77.57860 | 5893 ft | 302 kts | 266° |
| 2026-05-04 20:35 | 24.97264 | -77.60267 | 4263 ft | 312 kts | 266° |
| 2026-05-04 20:35 | 24.97240 | -77.62526 | 3697 ft | 280 kts | 287° |
| 2026-05-04 20:35 | 24.98325 | -77.64129 | 3177 ft | 256 kts | 332° |
| 2026-05-04 20:36 | 24.99977 | -77.64438 | 2684 ft | 239 kts | 11° |
| 2026-05-04 20:36 | 25.01351 | -77.63487 | 2233 ft | 233 kts | 46° |
| 2026-05-04 20:36 | 25.02332 | -77.62137 | 1973 ft | 218 kts | 50° |
| 2026-05-04 20:36 | 25.03138 | -77.60810 | 1909 ft | 198 kts | 65° |
| 2026-05-04 20:37 | 25.03465 | -77.59413 | 1924 ft | 182 kts | 82° |
| 2026-05-04 20:37 | 25.03519 | -77.58041 | 1821 ft | 177 kts | 88° |
| 2026-05-04 20:37 | 25.03524 | -77.56680 | 1769 ft | 177 kts | 89° |
| 2026-05-04 20:37 | 25.03525 | -77.55323 | 1595 ft | 176 kts | 89° |
| 2026-05-04 20:38 | 25.03539 | -77.54010 | 1380 ft | 168 kts | 87° |
| 2026-05-04 20:38 | 25.03558 | -77.52743 | 1097 ft | 164 kts | 87° |
| 2026-05-04 20:38 | 25.03578 | -77.51471 | 837 ft | 163 kts | 87° |
| 2026-05-04 20:38 | 25.03591 | -77.50266 | 547 ft | 152 kts | 88° |
| 2026-05-04 20:39 | 25.03588 | -77.49149 | 303 ft | 141 kts | 90° |
| 2026-05-04 20:39 | 25.03593 | -77.48093 | 64 ft | 135 kts | 89° |
| 2026-05-04 20:39 | 25.03598 | -77.47103 | 18 ft | 114 kts | 90° |
| 2026-05-04 20:39 | 25.03602 | -77.46417 | 17 ft | 66 kts | 89° |
| 2026-05-04 20:40 | 25.03611 | -77.46112 | 18 ft | 25 kts | 71° |
| 2026-05-04 20:40 | 25.03723 | -77.45977 | 19 ft | 24 kts | 44° |
| 2026-05-04 20:40 | 25.03856 | -77.45866 | 17 ft | 24 kts | 2° |
| 2026-05-04 20:40 | 25.03985 | -77.45982 | 17 ft | 25 kts | 315° |
| 2026-05-04 20:41 | 25.04120 | -77.46130 | 17 ft | 29 kts | 316° |
| 2026-05-04 20:41 | 25.04262 | -77.46292 | 17 ft | 31 kts | 315° |
| 2026-05-04 20:41 | 25.04416 | -77.46461 | 17 ft | 32 kts | 315° |
| 2026-05-04 20:41 | 25.04574 | -77.46637 | 18 ft | 33 kts | 315° |
| 2026-05-04 20:42 | 25.04696 | -77.46742 | 19 ft | 16 kts | 11° |
| 2026-05-04 20:42 | 25.04776 | -77.46666 | 18 ft | 11 kts | 45° |
| 2026-05-04 20:42 | 25.04819 | -77.46652 | 17 ft | 2 kts | 339° |
| 2026-05-04 20:42 | 25.04832 | -77.46664 | 17 ft | 5 kts | 323° |
| 2026-05-04 20:43 | 25.04843 | -77.46672 | 17 ft | 0 kts | 324° |